Time;durP1;ratioP1;P1;durP2;ratioP2;P2;SDS_P1;SDS_P2;PMS_P1;PMS_P2;Temp;Humidity;BMP_temperature;BMP_pressure;BME280_temperature;BME280_humidity;BME280_pressure;Samples;Min_cycle;Max_cycle;Signal;HPM_P1;HPM_P2
2021/08/23 00:01:40;;;;;;;7.85;4.93;;;;;;;16.54;75.88;102337.34;5138848;28;20089;-79
2021/08/23 00:04:08;;;;;;;9.30;5.40;;;;;;;16.55;75.85;102338.19;5139823;28;20059;-83
2021/08/23 00:06:34;;;;;;;6.63;4.28;;;;;;;16.60;75.45;102331.84;5138698;27;20148;-83
2021/08/23 00:09:00;;;;;;;7.25;5.38;;;;;;;16.44;75.65;102318.38;5113628;27;20047;-84
2021/08/23 00:11:26;;;;;;;8.55;4.95;;;;;;;16.52;75.61;102339.16;5147476;27;20098;-84
2021/08/23 00:13:53;;;;;;;5.90;4.50;;;;;;;16.47;75.81;102334.06;5130375;27;20055;-84
2021/08/23 00:16:20;;;;;;;6.75;4.63;;;;;;;16.42;75.68;102341.28;5120815;27;20093;-84
2021/08/23 00:18:48;;;;;;;7.40;4.72;;;;;;;16.30;76.35;102324.13;5108457;27;20043;-84
2021/08/23 00:21:21;;;;;;;6.88;4.40;;;;;;;16.29;76.20;102335.56;5121939;27;20044;-85
2021/08/23 00:23:52;;;;;;;5.40;4.18;;;;;;;16.23;76.33;102346.34;5122677;27;20079;-84
2021/08/23 00:26:19;;;;;;;6.25;4.70;;;;;;;16.20;76.62;102337.69;5139536;27;20104;-83
2021/08/23 00:28:47;;;;;;;6.85;4.50;;;;;;;16.14;76.72;102333.50;5104244;27;20054;-84
2021/08/23 00:31:14;;;;;;;6.22;4.30;;;;;;;16.07;76.77;102338.13;5120179;27;20051;-85
2021/08/23 00:33:40;;;;;;;5.97;4.00;;;;;;;16.06;76.48;102338.19;5109523;28;20108;-84
2021/08/23 00:36:06;;;;;;;7.40;4.30;;;;;;;16.08;76.21;102344.28;5118656;28;20054;-84
2021/08/23 00:38:32;;;;;;;6.53;4.05;;;;;;;16.07;76.24;102339.91;5137713;27;20043;-83
2021/08/23 00:40:58;;;;;;;6.75;3.92;;;;;;;16.11;76.15;102333.59;5138459;27;20043;-84
2021/08/23 00:43:25;;;;;;;6.63;4.05;;;;;;;16.13;76.13;102342.31;5139359;27;20043;-84
2021/08/23 00:45:51;;;;;;;6.32;4.50;;;;;;;16.04;76.95;102351.41;5118486;27;20467;-85
2021/08/23 00:48:17;;;;;;;6.82;4.40;;;;;;;15.97;76.70;102331.47;5139252;27;20108;-83
2021/08/23 00:50:42;;;;;;;5.80;4.20;;;;;;;16.08;76.29;102342.47;5138734;27;20047;-85
2021/08/23 00:53:09;;;;;;;7.32;4.10;;;;;;;15.81;76.11;102310.03;5131728;27;20067;-81
2021/08/23 00:55:37;;;;;;;5.28;3.88;;;;;;;16.04;75.84;102338.25;5135842;27;20039;-81
2021/08/23 00:58:03;;;;;;;7.25;4.22;;;;;;;16.05;75.83;102339.97;5138463;27;20054;-80
2021/08/23 01:00:32;;;;;;;6.65;3.90;;;;;;;16.01;76.03;102335.72;5140857;27;20051;-85
2021/08/23 01:03:10;;;;;;;5.88;3.88;;;;;;;15.92;76.56;102338.69;5120102;27;20051;-84
2021/08/23 01:05:37;;;;;;;4.97;3.60;;;;;;;15.87;76.23;102336.19;5117638;28;20105;-86
2021/08/23 01:08:07;;;;;;;5.47;3.72;;;;;;;15.93;75.77;102335.97;5131256;27;20031;-85
2021/08/23 01:10:39;;;;;;;6.22;3.95;;;;;;;15.84;75.90;102329.28;5138879;27;20099;-85
2021/08/23 01:13:06;;;;;;;6.82;3.80;;;;;;;15.81;76.38;102337.22;5119977;28;20066;-85
2021/08/23 01:15:33;;;;;;;5.65;3.80;;;;;;;15.68;76.44;102330.66;5116748;27;20048;-86
2021/08/23 01:17:59;;;;;;;6.25;3.45;;;;;;;15.83;76.13;102345.09;5137119;27;20487;-85
2021/08/23 01:20:26;;;;;;;8.63;4.50;;;;;;;15.73;76.25;102335.78;5137588;27;20050;-85
2021/08/23 01:22:54;;;;;;;5.80;4.00;;;;;;;15.83;76.48;102345.97;5136629;27;20141;-85
2021/08/23 01:25:26;;;;;;;5.43;3.60;;;;;;;15.76;76.61;102336.53;5137835;27;20065;-84
2021/08/23 01:28:11;;;;;;;5.63;3.92;;;;;;;15.76;76.69;102347.06;5138046;27;20055;-85
2021/08/23 01:30:50;;;;;;;6.63;4.53;;;;;;;15.71;77.23;102350.75;5138192;27;20055;-85
2021/08/23 01:33:16;;;;;;;6.32;4.07;;;;;;;15.55;77.32;102331.97;5117884;27;20050;-85
2021/08/23 01:35:43;;;;;;;6.00;4.03;;;;;;;15.63;77.34;102353.66;5126193;27;20047;-85
2021/08/23 01:38:09;;;;;;;5.88;4.20;;;;;;;15.47;77.50;102326.97;5104776;28;20054;-86
2021/08/23 01:40:35;;;;;;;6.28;4.32;;;;;;;15.55;77.50;102340.75;5118582;27;20094;-85
2021/08/23 01:43:04;;;;;;;6.95;4.53;;;;;;;15.52;77.50;102348.72;5104574;28;20146;-84
2021/08/23 01:45:30;;;;;;;7.03;4.80;;;;;;;15.55;77.76;102342.50;5118425;27;20105;-81
2021/08/23 01:47:56;;;;;;;6.60;4.15;;;;;;;15.57;77.72;102352.06;5136025;27;20043;-82
2021/08/23 01:50:22;;;;;;;4.88;3.63;;;;;;;15.58;77.65;102352.94;5129418;27;20045;-82
2021/08/23 01:52:48;;;;;;;5.35;4.03;;;;;;;15.40;77.72;102333.34;5136026;27;20100;-83
2021/08/23 01:55:16;;;;;;;7.47;4.80;;;;;;;15.49;78.13;102356.72;5135846;27;20411;-82
2021/08/23 01:57:42;;;;;;;7.72;4.38;;;;;;;15.18;78.13;102319.13;5122405;27;20047;-85
2021/08/23 02:00:09;;;;;;;7.28;4.60;;;;;;;15.40;78.05;102347.34;5115141;28;20047;-82
2021/08/23 02:02:35;;;;;;;6.78;4.88;;;;;;;15.18;78.75;102327.00;5096951;28;20081;-84
2021/08/23 02:05:01;;;;;;;9.82;5.22;;;;;;;15.36;78.94;102364.16;5115435;28;20592;-83
2021/08/23 02:07:28;;;;;;;7.53;4.45;;;;;;;15.36;78.39;102366.78;5121206;27;20523;-82
2021/08/23 02:09:56;;;;;;;6.72;4.10;;;;;;;15.30;78.08;102351.19;5117001;27;20502;-83
2021/08/23 02:12:22;;;;;;;7.18;4.95;;;;;;;15.27;78.45;102351.28;5116856;27;20414;-82
2021/08/23 02:14:48;;;;;;;6.68;5.25;;;;;;;15.22;78.86;102354.03;5118065;27;20096;-82
2021/08/23 02:17:14;;;;;;;7.32;4.80;;;;;;;15.18;79.46;102358.56;5127808;27;20074;-83
2021/08/23 02:19:40;;;;;;;5.88;4.20;;;;;;;15.17;79.38;102359.47;5135406;27;20065;-84
2021/08/23 02:22:06;;;;;;;8.02;5.00;;;;;;;15.08;79.33;102343.13;5136726;27;20100;-83
2021/08/23 02:24:33;;;;;;;6.55;4.97;;;;;;;15.12;78.82;102353.47;5130496;27;20488;-84
2021/08/23 02:26:59;;;;;;;8.30;5.45;;;;;;;15.24;79.09;102368.03;5116407;27;20059;-82
2021/08/23 02:29:25;;;;;;;7.88;4.90;;;;;;;15.07;78.81;102350.13;5149197;27;20039;-82
2021/08/23 02:31:51;;;;;;;8.32;5.03;;;;;;;15.06;79.01;102364.19;5160666;27;20024;-81
2021/08/23 02:34:17;;;;;;;7.43;5.90;;;;;;;15.15;79.09;102378.84;5160743;27;20087;-81
2021/08/23 02:36:43;;;;;;;7.65;5.32;;;;;;;15.12;78.99;102379.78;5150708;27;20054;-78
2021/08/23 02:39:09;;;;;;;6.50;5.30;;;;;;;14.90;79.22;102350.63;5145109;27;20467;-78
2021/08/23 02:41:35;;;;;;;7.40;5.32;;;;;;;15.11;79.27;102385.97;5127512;27;20445;-80
2021/08/23 02:44:01;;;;;;;6.85;5.55;;;;;;;15.04;79.64;102390.53;5114417;28;20090;-78
2021/08/23 02:46:27;;;;;;;7.10;5.50;;;;;;;15.00;79.36;102382.78;5125936;27;20047;-79
2021/08/23 02:48:55;;;;;;;8.15;6.15;;;;;;;14.91;79.94;102367.28;5134780;27;20043;-79
2021/08/23 02:51:21;;;;;;;7.22;5.55;;;;;;;15.00;80.18;102403.81;5130609;27;20046;-79
2021/08/23 02:53:47;;;;;;;9.43;6.00;;;;;;;14.82;80.16;102381.56;5121630;27;20043;-79
2021/08/23 02:56:12;;;;;;;8.07;5.30;;;;;;;14.89;80.36;102404.13;5134754;27;20070;-78
2021/08/23 02:58:38;;;;;;;7.63;5.22;;;;;;;14.83;80.62;102404.31;5131477;27;20503;-78
2021/08/23 03:01:05;;;;;;;7.60;5.88;;;;;;;14.80;80.93;102404.41;5134812;27;20504;-78
2021/08/23 03:03:34;;;;;;;7.15;5.40;;;;;;;14.79;80.58;102400.91;5137236;27;20402;-78
2021/08/23 03:06:00;;;;;;;8.38;5.28;;;;;;;14.81;80.59;102399.09;5149184;27;20069;-79
2021/08/23 03:08:26;;;;;;;8.38;6.22;;;;;;;14.79;80.57;102394.78;5140294;27;20061;-78
2021/08/23 03:10:54;;;;;;;9.65;5.68;;;;;;;14.74;81.17;102400.19;5123902;28;20043;-78
2021/08/23 03:13:21;;;;;;;7.75;5.95;;;;;;;14.52;81.23;102376.25;5100143;28;20518;-78
2021/08/23 03:15:49;;;;;;;6.72;5.53;;;;;;;14.67;81.05;102399.50;5116221;27;20048;-79
2021/08/23 03:18:15;;;;;;;8.25;6.28;;;;;;;14.62;80.96;102400.50;5117688;27;20162;-79
2021/08/23 03:20:41;;;;;;;8.63;6.03;;;;;;;14.57;81.70;102406.75;5134059;27;20047;-79
2021/08/23 03:23:08;;;;;;;8.00;6.38;;;;;;;14.47;81.14;102393.91;5114396;28;20086;-81
2021/08/23 03:25:34;;;;;;;9.25;6.53;;;;;;;14.50;81.59;102407.81;5095656;28;20058;-81
2021/08/23 03:28:00;;;;;;;7.70;6.50;;;;;;;14.41;82.16;102406.31;5115081;27;20381;-79
2021/08/23 03:30:26;;;;;;;11.15;7.00;;;;;;;14.28;82.43;102388.28;5134821;27;20095;-80
2021/08/23 03:32:53;;;;;;;11.13;6.80;;;;;;;14.20;82.15;102370.94;5115984;28;20050;-80
2021/08/23 03:35:19;;;;;;;10.43;6.63;;;;;;;14.21;82.32;102382.34;5134214;27;20403;-81
2021/08/23 03:37:45;;;;;;;9.38;6.80;;;;;;;14.38;82.23;102406.38;5133869;27;20476;-82
2021/08/23 03:40:11;;;;;;;9.20;6.75;;;;;;;14.38;82.01;102405.53;5133654;27;20380;-79
2021/08/23 03:42:38;;;;;;;11.40;7.28;;;;;;;14.29;82.59;102403.97;5120467;27;20055;-80
2021/08/23 03:45:04;;;;;;;10.57;7.72;;;;;;;14.31;82.51;102403.97;5119562;28;20395;-82
2021/08/23 03:47:31;;;;;;;10.52;7.55;;;;;;;14.30;82.20;102396.97;5113290;28;20040;-80
2021/08/23 03:49:57;;;;;;;9.65;7.10;;;;;;;14.27;82.18;102391.81;5120521;28;20096;-80
2021/08/23 03:52:26;;;;;;;10.32;7.60;;;;;;;14.09;82.07;102363.34;5134865;28;20086;-82
2021/08/23 03:54:52;;;;;;;9.90;7.63;;;;;;;14.24;82.41;102393.63;5134895;28;20053;-81
2021/08/23 03:57:18;;;;;;;10.45;7.50;;;;;;;14.28;81.97;102397.03;5134360;28;20051;-80
2021/08/23 03:59:44;;;;;;;11.75;8.45;;;;;;;14.12;82.60;102369.44;5133894;27;20047;-82
2021/08/23 04:02:10;;;;;;;11.32;7.47;;;;;;;14.11;82.51;102372.97;5116355;28;20487;-82
2021/08/23 04:04:37;;;;;;;10.57;8.13;;;;;;;14.25;82.84;102402.34;5132938;28;20402;-82
2021/08/23 04:07:03;;;;;;;13.35;8.07;;;;;;;14.08;83.11;102385.25;5133649;28;20073;-80
2021/08/23 04:09:29;;;;;;;12.05;8.52;;;;;;;14.24;82.77;102416.38;5113072;28;20044;-82
2021/08/23 04:11:55;;;;;;;11.70;9.10;;;;;;;14.22;83.04;102408.56;5113406;28;20048;-81
2021/08/23 04:14:22;;;;;;;12.13;9.18;;;;;;;14.12;82.65;102391.28;5113307;28;20127;-81
2021/08/23 04:16:48;;;;;;;13.02;9.48;;;;;;;13.89;83.10;102365.63;5115958;28;20470;-83
2021/08/23 04:19:14;;;;;;;13.90;9.52;;;;;;;14.20;83.26;102414.75;5128004;28;20048;-80
2021/08/23 04:21:40;;;;;;;13.73;9.88;;;;;;;14.20;83.34;102412.13;5113155;28;20039;-80
2021/08/23 04:24:06;;;;;;;14.65;10.90;;;;;;;14.20;83.45;102417.38;5094818;28;20132;-80
2021/08/23 04:26:32;;;;;;;14.68;10.98;;;;;;;14.21;83.47;102419.09;5112949;28;20051;-81
2021/08/23 04:28:58;;;;;;;14.88;11.00;;;;;;;14.16;83.59;102411.34;5125627;28;20047;-79
2021/08/23 04:31:28;;;;;;;18.17;11.80;;;;;;;14.18;83.34;102417.41;5133574;27;20115;-79
2021/08/23 04:33:54;;;;;;;16.08;11.10;;;;;;;14.20;83.67;102417.38;5132509;28;20047;-80
2021/08/23 04:36:20;;;;;;;15.45;11.98;;;;;;;14.13;83.87;102408.78;5132778;28;20076;-80
2021/08/23 04:38:46;;;;;;;15.95;11.27;;;;;;;14.16;83.92;102419.22;5123945;28;20404;-80
2021/08/23 04:41:12;;;;;;;14.35;11.07;;;;;;;14.02;83.86;102395.91;5114294;28;20050;-79
2021/08/23 04:43:38;;;;;;;16.67;11.80;;;;;;;14.22;83.96;102429.56;5133448;28;20139;-79
2021/08/23 04:46:03;;;;;;;15.57;11.48;;;;;;;14.21;83.79;102435.72;5130804;28;20536;-80
2021/08/23 04:48:29;;;;;;;16.27;11.70;;;;;;;14.05;83.82;102402.88;5099671;28;20047;-79
2021/08/23 04:50:55;;;;;;;18.77;11.98;;;;;;;14.13;84.12;102429.78;5122701;27;20484;-79
2021/08/23 04:53:21;;;;;;;15.55;11.95;;;;;;;14.15;84.11;102440.28;5126447;27;20039;-78
2021/08/23 04:55:48;;;;;;;16.52;12.48;;;;;;;14.12;84.54;102443.81;5125870;27;20070;-79
2021/08/23 04:58:14;;;;;;;19.92;12.20;;;;;;;14.05;84.55;102437.03;5135766;27;20433;-79
2021/08/23 05:00:40;;;;;;;16.05;11.27;;;;;;;14.08;84.63;102448.28;5141600;28;20081;-80
2021/08/23 05:03:08;;;;;;;17.50;11.82;;;;;;;14.10;84.64;102453.53;5130380;27;20295;-79
2021/08/23 05:05:34;;;;;;;14.80;11.02;;;;;;;14.13;84.29;102440.28;5118063;28;20043;-81
2021/08/23 05:08:00;;;;;;;15.13;10.93;;;;;;;14.29;83.77;102448.63;5118242;28;20089;-80
2021/08/23 05:10:26;;;;;;;16.90;11.95;;;;;;;14.35;83.12;102432.72;5117367;27;20096;-80
2021/08/23 05:12:55;;;;;;;16.17;11.13;;;;;;;14.54;82.92;102458.53;5116933;27;20044;-81
2021/08/23 05:15:23;;;;;;;16.45;12.13;;;;;;;14.38;83.14;102431.81;5117861;27;20341;-81
2021/08/23 05:17:50;;;;;;;17.88;12.32;;;;;;;14.51;83.31;102450.72;5124846;27;20047;-81
2021/08/23 05:20:16;;;;;;;14.77;11.23;;;;;;;14.41;83.01;102429.97;5116082;28;20522;-81
2021/08/23 05:22:42;;;;;;;18.92;12.45;;;;;;;14.60;82.90;102449.59;5126102;27;20040;-80
2021/08/23 05:25:09;;;;;;;22.88;14.15;;;;;;;14.50;83.43;102441.97;5136386;27;20051;-81
2021/08/23 05:27:35;;;;;;;20.13;13.73;;;;;;;14.75;83.33;102469.41;5134357;27;20498;-81
2021/08/23 05:30:03;;;;;;;22.20;14.85;;;;;;;14.61;83.62;102454.84;5136574;27;20050;-81
2021/08/23 05:32:29;;;;;;;20.55;14.95;;;;;;;14.71;84.05;102471.25;5136716;27;20042;-80
2021/08/23 05:34:55;;;;;;;22.52;15.38;;;;;;;14.67;84.29;102473.09;5135443;27;20046;-81
2021/08/23 05:37:21;;;;;;;27.40;16.23;;;;;;;14.68;84.35;102476.56;5134723;27;20046;-80
2021/08/23 05:39:48;;;;;;;25.27;16.52;;;;;;;14.49;84.29;102450.75;5121560;27;20047;-82
2021/08/23 05:42:14;;;;;;;21.83;14.60;;;;;;;14.66;84.10;102467.88;5126853;27;20043;-83
2021/08/23 05:44:41;;;;;;;22.17;14.27;;;;;;;14.76;83.83;102471.09;5137529;27;20047;-81
2021/08/23 05:47:07;;;;;;;20.00;14.30;;;;;;;14.67;83.69;102457.31;5137577;27;20043;-85
2021/08/23 05:49:34;;;;;;;26.50;16.10;;;;;;;14.72;83.83;102465.06;5139240;27;20088;-84
2021/08/23 05:52:00;;;;;;;27.05;17.10;;;;;;;14.69;84.14;102468.63;5135493;27;20040;-81
2021/08/23 05:54:27;;;;;;;22.40;15.60;;;;;;;14.55;84.03;102447.97;5113679;27;20092;-80
2021/08/23 05:56:56;;;;;;;22.67;15.70;;;;;;;14.76;83.98;102466.72;5146250;27;20051;-80
2021/08/23 05:59:23;;;;;;;24.40;16.30;;;;;;;14.81;84.08;102480.59;5137824;27;20058;-79
2021/08/23 06:01:53;;;;;;;24.08;17.10;;;;;;;14.90;83.88;102466.31;5117714;27;20051;-82
2021/08/23 06:04:20;;;;;;;23.33;16.90;;;;;;;14.95;83.64;102477.59;5136240;27;20066;-82
2021/08/23 06:06:47;;;;;;;23.20;15.45;;;;;;;14.97;83.82;102475.78;5133756;27;20051;-82
2021/08/23 06:09:15;;;;;;;26.58;16.90;;;;;;;15.03;83.59;102475.59;5135991;27;20043;-82
2021/08/23 06:11:41;;;;;;;29.40;18.45;;;;;;;14.86;83.67;102454.19;5138892;27;20039;-81
2021/08/23 06:14:07;;;;;;;25.85;17.08;;;;;;;15.02;83.67;102478.28;5153888;27;20050;-82
2021/08/23 06:16:33;;;;;;;30.33;19.17;;;;;;;14.93;83.80;102465.38;5152218;27;20027;-82
2021/08/23 06:18:59;;;;;;;28.67;18.08;;;;;;;14.98;83.77;102482.75;5107417;28;20109;-80
2021/08/23 06:21:26;;;;;;;23.40;17.35;;;;;;;15.11;83.69;102485.91;5121830;28;20044;-81
2021/08/23 06:23:52;;;;;;;26.98;17.80;;;;;;;15.26;83.26;102481.09;5130916;27;20040;-80
2021/08/23 06:26:18;;;;;;;30.38;17.67;;;;;;;15.39;82.25;102465.81;5135696;27;20415;-81
2021/08/23 06:28:44;;;;;;;29.60;19.05;;;;;;;15.40;82.64;102480.69;5119293;27;20096;-81
2021/08/23 06:31:10;;;;;;;26.88;17.73;;;;;;;15.48;82.33;102483.97;5101969;28;20048;-83
2021/08/23 06:33:36;;;;;;;25.70;16.95;;;;;;;15.59;81.85;102489.75;5098190;28;20047;-80
2021/08/23 06:36:03;;;;;;;25.20;17.05;;;;;;;15.61;81.22;102476.53;5130639;27;20091;-83
2021/08/23 06:38:29;;;;;;;24.95;17.10;;;;;;;15.82;81.14;102499.59;5135440;27;20047;-83
2021/08/23 06:40:55;;;;;;;26.83;16.58;;;;;;;15.87;81.22;102504.72;5135129;27;20051;-82
2021/08/23 06:43:21;;;;;;;28.27;18.58;;;;;;;15.99;80.66;102501.72;5130061;27;20050;-81
2021/08/23 06:45:47;;;;;;;26.08;18.15;;;;;;;15.97;80.69;102507.94;5104708;28;20423;-81
2021/08/23 06:48:14;;;;;;;26.05;18.30;;;;;;;16.02;80.50;102502.53;5114557;27;20052;-79
2021/08/23 06:50:40;;;;;;;30.30;19.75;;;;;;;16.14;80.34;102510.03;5098512;28;20054;-81
2021/08/23 06:53:07;;;;;;;27.13;18.55;;;;;;;16.30;79.93;102516.50;5125783;27;20047;-84
2021/08/23 06:55:33;;;;;;;29.15;18.42;;;;;;;16.27;79.60;102513.09;5115433;27;20047;-84
2021/08/23 06:58:00;;;;;;;28.77;19.30;;;;;;;16.21;79.93;102514.19;5132446;27;20043;-81
2021/08/23 07:00:26;;;;;;;35.25;20.88;;;;;;;16.14;80.16;102513.50;5131150;27;20040;-81
2021/08/23 07:02:53;;;;;;;31.38;21.88;;;;;;;16.17;80.21;102502.00;5114462;28;20050;-81
2021/08/23 07:05:19;;;;;;;27.50;19.25;;;;;;;16.40;79.53;102524.97;5114772;28;20059;-79
2021/08/23 07:07:45;;;;;;;30.42;20.05;;;;;;;16.45;79.43;102522.16;5114525;28;20063;-80
2021/08/23 07:10:12;;;;;;;28.58;20.65;;;;;;;16.57;79.24;102524.38;5114192;28;20118;-81
2021/08/23 07:12:39;;;;;;;26.65;19.58;;;;;;;16.54;79.33;102510.44;5128429;27;20051;-81
2021/08/23 07:15:06;;;;;;;30.08;19.88;;;;;;;16.61;79.09;102522.50;5136276;27;20043;-80
2021/08/23 07:17:33;;;;;;;25.05;18.67;;;;;;;16.56;79.37;102511.25;5131387;27;20039;-79
2021/08/23 07:20:00;;;;;;;30.30;20.60;;;;;;;16.78;78.73;102519.28;5115621;27;20104;-79
2021/08/23 07:22:28;;;;;;;28.92;19.70;;;;;;;16.86;78.25;102524.31;5124431;27;20043;-80
2021/08/23 07:24:54;;;;;;;30.90;20.92;;;;;;;16.99;77.70;102522.97;5118949;28;20032;-79
2021/08/23 07:27:20;;;;;;;27.67;19.13;;;;;;;16.99;77.33;102507.16;5124910;28;20043;-80
2021/08/23 07:29:46;;;;;;;31.13;21.02;;;;;;;17.07;77.43;102523.53;5131929;28;20044;-79
2021/08/23 07:32:12;;;;;;;28.33;20.15;;;;;;;17.07;77.02;102531.47;5122670;28;20052;-79
2021/08/23 07:34:38;;;;;;;30.10;20.35;;;;;;;17.11;77.35;102543.63;5105545;28;20055;-79
2021/08/23 07:37:05;;;;;;;29.50;20.98;;;;;;;16.95;77.28;102534.53;5117839;28;20047;-81
2021/08/23 07:39:31;;;;;;;26.98;19.17;;;;;;;16.97;77.62;102538.00;5114289;28;20043;-80
2021/08/23 07:41:57;;;;;;;32.40;20.05;;;;;;;17.01;78.35;102552.78;5115086;28;20040;-75
2021/08/23 07:44:23;;;;;;;32.30;21.15;;;;;;;16.90;78.28;102544.38;5097173;28;20063;-80
2021/08/23 07:46:49;;;;;;;32.20;21.67;;;;;;;16.93;78.02;102547.78;5105541;28;20059;-80
2021/08/23 07:49:15;;;;;;;28.48;20.42;;;;;;;16.99;77.51;102541.44;5114345;28;20549;-79
2021/08/23 07:51:40;;;;;;;34.03;20.80;;;;;;;17.03;77.86;102544.81;5113639;28;20051;-82
2021/08/23 07:54:08;;;;;;;31.67;21.25;;;;;;;17.01;77.90;102542.22;5114418;28;20044;-79
2021/08/23 07:56:34;;;;;;;33.13;21.95;;;;;;;17.00;77.81;102542.31;5115541;28;20048;-80
2021/08/23 07:59:00;;;;;;;30.08;21.88;;;;;;;17.01;77.52;102544.88;5099571;28;20043;-81
2021/08/23 08:01:26;;;;;;;35.35;22.88;;;;;;;17.07;77.40;102546.44;5095993;28;20054;-79
2021/08/23 08:03:52;;;;;;;34.08;20.88;;;;;;;17.17;76.99;102537.25;5114920;28;20503;-79
2021/08/23 08:06:19;;;;;;;34.80;23.30;;;;;;;17.31;76.87;102541.16;5116127;28;20044;-77
2021/08/23 08:08:45;;;;;;;30.75;21.67;;;;;;;17.29;76.69;102546.50;5112201;28;20487;-80
2021/08/23 08:11:12;;;;;;;29.15;20.67;;;;;;;17.23;76.45;102530.91;5112806;28;20078;-80
2021/08/23 08:13:38;;;;;;;28.85;21.10;;;;;;;17.35;76.51;102532.25;5113498;28;20197;-81
2021/08/23 08:16:04;;;;;;;28.17;20.13;;;;;;;17.28;76.52;102540.38;5113263;28;20048;-81
2021/08/23 08:18:30;;;;;;;33.58;22.50;;;;;;;17.39;76.51;102549.66;5111504;28;20051;-81
2021/08/23 08:20:57;;;;;;;32.60;22.20;;;;;;;17.50;75.77;102544.84;5099559;28;20492;-81
2021/08/23 08:23:24;;;;;;;29.27;21.35;;;;;;;17.53;75.85;102551.81;5111016;28;20437;-81
2021/08/23 08:25:50;;;;;;;29.95;20.08;;;;;;;17.62;75.06;102564.63;5115855;28;20132;-81
2021/08/23 08:28:15;;;;;;;27.10;19.65;;;;;;;17.51;75.46;102543.91;5099288;28;20044;-81
2021/08/23 08:30:42;;;;;;;24.38;18.52;;;;;;;17.67;75.44;102554.75;5117116;28;20506;-81
2021/08/23 08:33:10;;;;;;;26.05;18.20;;;;;;;17.70;74.81;102564.34;5115399;28;20070;-79
2021/08/23 08:35:36;;;;;;;26.90;19.42;;;;;;;17.80;74.65;102551.63;5117882;28;20150;-81
2021/08/23 08:38:02;;;;;;;21.73;16.63;;;;;;;17.91;73.83;102555.59;5116063;28;20509;-81
2021/08/23 08:40:46;;;;;;;20.40;14.95;;;;;;;17.96;73.58;102562.50;5099438;28;20048;-79
2021/08/23 08:43:16;;;;;;;19.95;16.58;;;;;;;18.00;73.15;102556.19;5109658;28;20050;-79
2021/08/23 08:45:44;;;;;;;20.70;15.30;;;;;;;18.02;72.96;102552.53;5103251;28;20155;-79
2021/08/23 08:48:10;;;;;;;19.65;13.93;;;;;;;18.10;73.43;102557.50;5124898;28;20044;-78
2021/08/23 08:50:36;;;;;;;18.02;12.60;;;;;;;18.32;71.99;102568.09;5102302;28;20056;-79
2021/08/23 08:53:06;;;;;;;15.52;13.18;;;;;;;18.22;71.64;102567.63;5097556;28;20044;-79
2021/08/23 08:55:36;;;;;;;16.85;12.90;;;;;;;18.18;72.31;102573.09;5091699;28;20075;-80
2021/08/23 08:58:05;;;;;;;13.57;11.25;;;;;;;18.19;70.63;102577.44;5116647;28;20048;-79
2021/08/23 09:00:38;;;;;;;12.75;10.73;;;;;;;18.26;70.64;102576.28;5101954;28;20055;-79
2021/08/23 09:03:05;;;;;;;12.05;10.00;;;;;;;18.24;70.14;102575.47;5096211;28;20052;-79
2021/08/23 09:05:39;;;;;;;10.50;9.20;;;;;;;18.25;68.52;102574.56;5101176;28;20100;-81
2021/08/23 09:08:06;;;;;;;;;;;;;;;18.08;69.39;102573.44;5119255;28;20039;-80
2021/08/23 09:10:34;;;;;;;13.50;9.35;;;;;;;18.42;68.63;102576.50;5114137;28;19926;-79
2021/08/23 09:13:06;;;;;;;10.10;8.73;;;;;;;18.71;67.02;102577.03;5084555;28;20048;-80
2021/08/23 09:15:34;;;;;;;11.40;8.57;;;;;;;18.88;66.66;102568.38;5099145;28;20056;-79
2021/08/23 09:18:09;;;;;;;11.45;8.82;;;;;;;18.94;66.03;102570.78;5113240;27;20048;-79
2021/08/23 09:20:37;;;;;;;10.80;8.32;;;;;;;19.23;64.78;102536.88;5118835;27;20047;-80
2021/08/23 09:23:12;;;;;;;12.45;8.75;;;;;;;19.57;63.25;102571.56;5122705;27;20062;-81
2021/08/23 09:25:41;;;;;;;8.98;8.05;;;;;;;19.50;63.45;102565.66;5140856;27;20047;-82
2021/08/23 09:28:10;;;;;;;9.63;7.90;;;;;;;19.81;62.70;102590.72;5143636;27;20099;-81
2021/08/23 09:30:38;;;;;;;10.98;8.90;;;;;;;19.79;62.80;102595.25;5154051;27;20049;-82
2021/08/23 09:33:06;;;;;;;10.65;9.07;;;;;;;19.63;63.00;102589.81;5122508;27;20448;-83
2021/08/23 09:35:35;;;;;;;9.68;7.85;;;;;;;19.48;63.43;102583.41;5128558;27;20126;-81
2021/08/23 09:38:11;;;;;;;10.73;8.23;;;;;;;19.45;63.52;102580.91;5119402;28;20040;-83
2021/08/23 09:40:39;;;;;;;11.00;8.20;;;;;;;19.24;64.17;102582.72;5117355;28;20043;-83
2021/08/23 09:43:12;;;;;;;12.38;9.65;;;;;;;19.02;65.40;102586.34;5113501;28;20044;-83
2021/08/23 09:45:49;;;;;;;12.93;9.45;;;;;;;19.01;65.96;102589.94;5129557;27;20047;-83
2021/08/23 09:48:18;;;;;;;11.27;9.32;;;;;;;18.93;66.26;102599.97;5139058;27;20043;-82
2021/08/23 09:50:50;;;;;;;10.68;9.20;;;;;;;18.88;66.37;102603.66;5118927;28;20079;-82
2021/08/23 09:53:21;;;;;;;10.88;9.65;;;;;;;18.73;66.84;102602.50;5118813;28;20544;-81
2021/08/23 09:55:50;;;;;;;11.10;9.07;;;;;;;18.67;67.19;102602.75;5133205;27;20047;-83
2021/08/23 09:58:18;;;;;;;11.63;8.88;;;;;;;18.68;67.19;102601.00;5141012;28;20057;-82
2021/08/23 10:00:45;;;;;;;11.90;9.05;;;;;;;18.92;66.61;102604.44;5137967;28;20046;-82
2021/08/23 10:03:22;;;;;;;12.30;9.75;;;;;;;18.92;66.05;102601.78;5136034;28;20063;-82
2021/08/23 10:05:50;;;;;;;12.48;9.05;;;;;;;18.98;66.07;102612.09;5128490;28;20050;-83
2021/08/23 10:08:22;;;;;;;10.63;9.00;;;;;;;19.13;65.50;102609.72;5117214;28;20040;-82
2021/08/23 10:11:08;;;;;;;13.07;9.63;;;;;;;19.26;64.43;102610.88;5117528;28;20040;-83
2021/08/23 10:13:36;;;;;;;10.85;8.57;;;;;;;20.03;62.85;102611.81;5137967;27;20051;-82
2021/08/23 10:16:08;;;;;;;10.45;8.07;;;;;;;20.50;60.83;102591.00;5120950;27;20045;-82
2021/08/23 10:18:34;;;;;;;11.20;7.57;;;;;;;20.41;60.90;102598.47;5096724;28;20104;-83
2021/08/23 10:21:01;;;;;;;7.65;6.15;;;;;;;;;;5115381;28;20043;-82
2021/08/23 10:23:28;;;;;;;7.95;5.88;;;;;;;20.26;60.51;102610.72;5115383;28;20075;-82
2021/08/23 10:25:57;;;;;;;8.02;6.10;;;;;;;20.31;60.10;102603.38;5131807;28;20051;-82
2021/08/23 10:28:36;;;;;;;9.02;6.07;;;;;;;20.15;60.32;102600.63;5104276;28;20047;-82
2021/08/23 10:31:07;;;;;;;7.78;6.00;;;;;;;20.17;60.58;102599.69;5115933;28;20042;-83
2021/08/23 10:33:40;;;;;;;8.25;6.93;;;;;;;20.17;60.75;102600.53;5097416;28;20048;-82
2021/08/23 10:36:08;;;;;;;9.48;7.13;;;;;;;20.02;62.05;102606.56;5115632;28;20044;-83
2021/08/23 10:38:35;;;;;;;9.82;6.85;;;;;;;20.05;61.58;102617.03;5115011;28;20484;-83
2021/08/23 10:41:26;;;;;;;7.82;6.65;;;;;;;20.04;61.62;102610.84;5114906;28;20051;-82
2021/08/23 10:43:58;;;;;;;7.63;6.22;;;;;;;20.34;60.59;102618.28;5094540;28;20055;-82
2021/08/23 10:46:31;;;;;;;6.50;5.80;;;;;;;20.59;60.14;102604.66;5097815;28;20043;-85
2021/08/23 10:49:20;;;;;;;6.45;5.38;;;;;;;20.80;59.38;102607.19;5093295;28;20052;-82
2021/08/23 10:51:58;;;;;;;6.65;5.07;;;;;;;20.78;58.82;102607.25;5095211;28;20048;-82
2021/08/23 10:54:32;;;;;;;6.43;5.10;;;;;;;20.86;58.71;102613.97;5094020;28;20047;-83
2021/08/23 10:56:58;;;;;;;6.32;4.13;;;;;;;20.91;58.50;102617.22;5095242;28;20103;-82
2021/08/23 10:59:25;;;;;;;6.05;4.32;;;;;;;20.68;58.52;102590.06;5113613;28;20519;-82
2021/08/23 11:02:00;;;;;;;7.25;4.00;;;;;;;20.45;58.95;102584.09;5115659;28;20054;-82
2021/08/23 11:04:38;;;;;;;6.78;4.47;;;;;;;20.75;59.04;102614.50;5115198;28;20044;-82
2021/08/23 11:07:07;;;;;;;4.15;3.55;;;;;;;20.79;57.96;102585.09;5115471;28;20052;-82
2021/08/23 11:09:41;;;;;;;5.45;4.10;;;;;;;21.03;57.57;102621.06;5095928;28;20046;-86
2021/08/23 11:12:13;;;;;;;5.20;4.03;;;;;;;21.02;57.90;102616.69;5114045;28;20050;-81
2021/08/23 11:14:44;;;;;;;4.50;3.55;;;;;;;21.13;56.73;102624.97;5115733;28;20480;-83
2021/08/23 11:17:11;;;;;;;4.38;3.13;;;;;;;21.41;56.43;102623.47;5115016;28;20142;-85
2021/08/23 11:19:39;;;;;;;4.18;3.20;;;;;;;21.74;55.49;102615.50;5114596;28;20112;-84